createdAt,value
2022-11-30T00:01:32.402Z,68.40
2022-11-30T00:04:00.346Z,70.20
2022-11-30T00:06:28.236Z,66.50
2022-11-30T00:08:57.541Z,57.40
2022-11-30T00:11:27.453Z,57.30
2022-11-30T00:13:56.010Z,59.70
2022-11-30T00:16:24.257Z,58.30
2022-11-30T00:18:52.214Z,66.30
2022-11-30T00:21:20.398Z,63.50
2022-11-30T00:23:48.760Z,61.80
2022-11-30T00:26:22.924Z,61.00
2022-11-30T00:28:51.044Z,56.00
2022-11-30T00:31:20.231Z,59.90
2022-11-30T00:33:48.572Z,58.90
2022-11-30T00:36:19.601Z,60.50
2022-11-30T00:38:48.165Z,64.10
2022-11-30T00:41:17.434Z,62.80
2022-11-30T00:43:45.778Z,57.90
2022-11-30T00:46:14.029Z,58.30
2022-11-30T00:48:42.379Z,57.40
2022-11-30T00:51:11.312Z,64.90
2022-11-30T00:53:40.148Z,63.90
2022-11-30T00:56:09.318Z,60.50
2022-11-30T00:58:37.251Z,61.40
2022-11-30T01:01:05.385Z,57.60
2022-11-30T01:03:34.158Z,60.10
2022-11-30T01:06:07.207Z,62.40
2022-11-30T01:08:35.501Z,64.60
2022-11-30T01:11:23.809Z,65.70
2022-11-30T01:13:53.116Z,61.20
2022-11-30T01:16:24.113Z,60.60
2022-11-30T01:18:52.648Z,61.50
2022-11-30T01:21:23.526Z,62.60
2022-11-30T01:23:51.973Z,66.10
2022-11-30T01:26:20.520Z,67.10
2022-11-30T01:28:55.593Z,63.70
2022-11-30T01:31:24.821Z,63.40
2022-11-30T01:33:55.564Z,59.90
2022-11-30T01:36:26.218Z,58.80
2022-11-30T01:38:56.689Z,65.90
2022-11-30T01:41:30.551Z,69.80
2022-11-30T01:44:20.342Z,64.10
2022-11-30T01:46:56.940Z,57.50
2022-11-30T01:49:43.592Z,59.00
2022-11-30T01:52:40.307Z,62.20
2022-11-30T01:55:14.439Z,61.30
2022-11-30T01:57:49.128Z,65.70
2022-11-30T02:00:18.305Z,68.70
2022-11-30T02:03:25.777Z,63.10
2022-11-30T02:05:53.961Z,64.30
2022-11-30T02:08:22.716Z,61.90
2022-11-30T02:10:54.756Z,64.20
2022-11-30T02:13:40.776Z,67.70
2022-11-30T02:16:42.429Z,64.00
2022-11-30T02:21:42.292Z,63.10
2022-11-30T02:24:37.161Z,61.80
2022-11-30T02:27:18.753Z,68.00
2022-11-30T02:29:56.300Z,67.90
2022-11-30T02:32:40.253Z,66.70
2022-11-30T02:35:10.754Z,65.10
2022-11-30T02:37:39.553Z,58.90
2022-11-30T02:40:13.751Z,64.80
2022-11-30T02:42:41.638Z,66.60
2022-11-30T02:45:11.105Z,68.10
2022-11-30T02:47:50.618Z,70.50
2022-11-30T02:50:28.602Z,65.50
2022-11-30T02:52:57.530Z,62.20
2022-11-30T02:55:25.541Z,60.90
2022-11-30T02:57:53.482Z,62.20
2022-11-30T03:00:21.523Z,65.10
2022-11-30T03:02:49.966Z,65.50
2022-11-30T03:05:18.007Z,67.20
2022-11-30T03:07:45.908Z,65.30
2022-11-30T03:10:13.852Z,62.80
2022-11-30T03:12:41.732Z,63.30
2022-11-30T03:15:09.948Z,64.30
2022-11-30T03:17:37.867Z,67.30
2022-11-30T03:20:06.497Z,68.80
2022-11-30T03:22:34.465Z,72.30
2022-11-30T03:25:02.380Z,66.60
2022-11-30T03:27:30.284Z,65.10
2022-11-30T03:29:58.143Z,60.60
2022-11-30T03:32:26.097Z,61.50
2022-11-30T03:34:54.092Z,61.00
2022-11-30T03:37:22.066Z,65.20
2022-11-30T03:39:54.949Z,61.50
2022-11-30T03:42:25.760Z,63.00
2022-11-30T03:44:53.758Z,58.60
2022-11-30T03:47:21.720Z,59.40
2022-11-30T03:49:49.595Z,62.50
2022-11-30T03:52:17.519Z,67.60
2022-11-30T03:54:45.767Z,65.60
2022-11-30T03:57:13.802Z,59.40
2022-11-30T03:59:41.723Z,58.80
2022-11-30T04:02:09.633Z,57.20
2022-11-30T04:04:37.568Z,58.20
2022-11-30T04:07:05.459Z,61.80
2022-11-30T04:09:33.413Z,60.60
2022-11-30T04:12:01.305Z,59.10
2022-11-30T04:14:29.193Z,59.70
2022-11-30T04:16:57.065Z,64.10
2022-11-30T04:19:24.974Z,58.50
2022-11-30T04:21:52.849Z,59.00
2022-11-30T04:24:20.877Z,61.50
2022-11-30T04:26:48.821Z,56.30
2022-11-30T04:29:16.733Z,56.40
2022-11-30T04:31:44.807Z,59.00
2022-11-30T04:34:12.793Z,55.90
2022-11-30T04:36:40.682Z,57.60
2022-11-30T04:39:08.532Z,62.50
2022-11-30T04:41:36.403Z,61.20
2022-11-30T04:44:04.707Z,62.80
2022-11-30T04:46:32.737Z,59.90
2022-11-30T04:49:00.616Z,62.60
2022-11-30T04:51:28.466Z,56.60
2022-11-30T04:53:56.346Z,58.80
2022-11-30T04:56:24.213Z,59.20
2022-11-30T04:58:52.124Z,57.20
2022-11-30T05:01:20.201Z,55.10
2022-11-30T05:03:48.142Z,54.20
2022-11-30T05:06:15.943Z,53.80
2022-11-30T05:08:43.906Z,57.10
2022-11-30T05:11:11.837Z,56.00
2022-11-30T05:13:39.994Z,57.00
2022-11-30T05:16:08.386Z,55.10
2022-11-30T05:18:36.978Z,55.10
2022-11-30T05:21:05.019Z,54.20
2022-11-30T05:23:32.903Z,54.30
2022-11-30T05:26:04.087Z,54.80
2022-11-30T05:28:31.946Z,60.50
2022-11-30T05:31:04.273Z,56.00
2022-11-30T05:33:33.360Z,52.60
2022-11-30T05:36:04.520Z,52.70
2022-11-30T05:38:35.154Z,57.30
2022-11-30T05:41:03.264Z,59.20
2022-11-30T05:43:31.474Z,58.10
2022-11-30T05:46:01.581Z,54.50
2022-11-30T05:48:29.629Z,54.90
2022-11-30T05:51:09.260Z,58.70
2022-11-30T05:53:37.667Z,56.40
2022-11-30T05:56:07.753Z,54.40
2022-11-30T05:58:36.028Z,54.60
2022-11-30T06:01:04.766Z,54.80
2022-11-30T06:03:34.990Z,55.90
2022-11-30T06:06:02.903Z,58.40
2022-11-30T06:08:31.517Z,52.40
2022-11-30T06:11:02.843Z,54.40
2022-11-30T06:13:32.754Z,58.00
2022-11-30T06:16:02.380Z,57.70
2022-11-30T06:18:30.504Z,62.90
2022-11-30T06:21:03.725Z,73.00
2022-11-30T06:23:32.257Z,67.50
2022-11-30T06:26:11.095Z,63.40
2022-11-30T06:28:44.129Z,60.60
2022-11-30T06:31:14.703Z,62.30
2022-11-30T06:33:42.731Z,69.70
2022-11-30T06:36:10.753Z,66.80
2022-11-30T06:38:38.564Z,66.60
2022-11-30T06:41:09.192Z,62.50
2022-11-30T06:43:39.021Z,62.30
2022-11-30T06:46:07.854Z,66.40
2022-11-30T06:48:36.008Z,65.50
2022-11-30T06:51:09.093Z,63.40
2022-11-30T06:53:37.519Z,58.00
2022-11-30T06:56:10.823Z,58.10
2022-11-30T06:58:39.905Z,61.00
2022-11-30T07:01:10.097Z,65.90
2022-11-30T07:03:38.663Z,64.70
2022-11-30T07:06:14.680Z,66.70
2022-11-30T07:08:43.767Z,67.70
2022-11-30T07:11:12.552Z,63.00
2022-11-30T07:13:40.581Z,60.00
2022-11-30T07:16:11.355Z,63.50
2022-11-30T07:18:39.428Z,65.80
2022-11-30T07:21:07.711Z,67.00
2022-11-30T07:23:56.797Z,65.20
2022-11-30T07:26:31.194Z,61.30
2022-11-30T07:28:59.189Z,56.80
2022-11-30T07:31:34.390Z,50.10
2022-11-30T07:34:08.453Z,51.80
2022-11-30T07:36:36.604Z,53.30
2022-11-30T07:39:04.800Z,50.10
2022-11-30T07:41:37.375Z,52.40
2022-11-30T07:44:06.905Z,56.10
2022-11-30T07:46:41.284Z,59.40
2022-11-30T07:49:15.398Z,57.20
2022-11-30T07:51:52.870Z,59.60
2022-11-30T07:54:28.354Z,57.70
2022-11-30T07:57:02.141Z,55.70
2022-11-30T07:59:34.689Z,54.00
2022-11-30T08:02:10.770Z,56.20
2022-11-30T08:04:46.954Z,54.80
2022-11-30T08:07:22.293Z,54.10
2022-11-30T08:09:54.840Z,50.80
2022-11-30T08:12:31.732Z,49.90
2022-11-30T08:15:27.496Z,51.00
2022-11-30T08:18:05.662Z,53.10
2022-11-30T08:20:40.088Z,51.90
2022-11-30T08:23:18.012Z,51.80
2022-11-30T08:25:52.441Z,46.70
2022-11-30T08:31:06.532Z,50.60
2022-11-30T08:33:41.434Z,51.90
2022-11-30T08:36:19.922Z,60.20
2022-11-30T08:38:52.756Z,53.40
2022-11-30T08:41:28.858Z,50.40
2022-11-30T08:44:06.564Z,50.20
2022-11-30T08:46:51.854Z,53.30
2022-11-30T08:49:28.987Z,54.30
2022-11-30T08:52:18.177Z,54.20
2022-11-30T08:54:54.532Z,49.60
2022-11-30T08:57:42.812Z,51.80
2022-11-30T09:00:19.630Z,50.90
2022-11-30T09:02:47.641Z,56.50
2022-11-30T09:05:15.769Z,55.10
2022-11-30T09:07:43.730Z,51.20
2022-11-30T09:10:12.101Z,53.50
2022-11-30T09:12:47.529Z,50.10
2022-11-30T09:15:22.527Z,41.70
2022-11-30T09:17:58.674Z,45.10
2022-11-30T09:20:34.071Z,53.40
2022-11-30T09:23:08.230Z,52.10
2022-11-30T09:26:03.745Z,52.60
2022-11-30T09:28:41.505Z,49.60
2022-11-30T09:31:20.879Z,50.20
2022-11-30T09:33:56.837Z,56.50
2022-11-30T09:36:33.089Z,56.50
2022-11-30T09:39:21.196Z,59.30
2022-11-30T09:42:44.591Z,55.50
2022-11-30T09:45:24.729Z,52.40
2022-11-30T09:48:14.043Z,49.50
2022-11-30T09:50:44.192Z,52.00
2022-11-30T09:53:23.277Z,51.20
2022-11-30T09:55:56.554Z,54.90
2022-11-30T09:58:36.292Z,56.20
2022-11-30T10:01:07.528Z,52.90
2022-11-30T10:03:35.755Z,50.00
2022-11-30T10:06:09.913Z,53.90
2022-11-30T10:08:57.896Z,54.20
2022-11-30T10:12:12.335Z,51.10
2022-11-30T10:15:00.903Z,47.80
2022-11-30T10:17:39.785Z,44.20
2022-11-30T10:20:25.493Z,48.60
2022-11-30T10:23:03.780Z,48.50
2022-11-30T10:25:50.627Z,44.90
2022-11-30T10:28:47.551Z,43.00
2022-11-30T10:31:18.186Z,43.60
2022-11-30T10:33:49.493Z,53.90
2022-11-30T10:36:44.646Z,63.30
2022-11-30T10:39:30.769Z,58.70
2022-11-30T10:42:10.127Z,53.50
2022-11-30T10:44:46.242Z,53.70
2022-11-30T10:47:20.260Z,52.00
2022-11-30T10:49:52.822Z,56.60
2022-11-30T10:52:25.659Z,57.00
2022-11-30T10:55:00.570Z,56.60
2022-11-30T10:57:33.399Z,55.90
2022-11-30T11:00:05.414Z,46.30
2022-11-30T11:02:45.999Z,44.80
2022-11-30T11:05:30.975Z,52.50
2022-11-30T11:08:06.551Z,52.60
2022-11-30T11:10:45.118Z,52.60
2022-11-30T11:13:35.535Z,50.50
2022-11-30T11:16:05.231Z,48.70
2022-11-30T11:18:35.433Z,45.80
2022-11-30T11:21:16.536Z,47.00
2022-11-30T11:23:46.122Z,45.90
2022-11-30T11:26:25.614Z,46.50
2022-11-30T11:28:56.342Z,42.60
2022-11-30T11:31:37.993Z,38.60
2022-11-30T11:34:22.707Z,35.50
2022-11-30T11:37:05.320Z,39.00
2022-11-30T11:39:33.204Z,45.30
2022-11-30T11:42:01.252Z,47.60
2022-11-30T11:44:29.276Z,45.00
2022-11-30T11:47:02.019Z,41.90
2022-11-30T11:49:35.847Z,39.40
2022-11-30T11:52:05.391Z,41.20
2022-11-30T11:54:51.705Z,41.50
2022-11-30T11:57:23.201Z,43.20
2022-11-30T12:00:21.766Z,44.30
2022-11-30T12:03:18.773Z,43.70
2022-11-30T12:05:53.975Z,42.60
2022-11-30T12:09:03.182Z,43.50
2022-11-30T12:11:44.982Z,38.00
2022-11-30T12:14:15.689Z,37.30
2022-11-30T12:16:43.853Z,33.60
2022-11-30T12:19:28.713Z,30.00
2022-11-30T12:24:31.559Z,34.40
2022-11-30T12:27:07.030Z,41.50
2022-11-30T12:30:10.083Z,36.70
2022-11-30T12:32:50.183Z,39.60
2022-11-30T12:35:37.450Z,34.30
2022-11-30T12:38:16.058Z,36.70
2022-11-30T12:40:48.515Z,34.20
2022-11-30T12:43:40.160Z,29.40
2022-11-30T12:46:46.668Z,34.00
2022-11-30T12:49:17.675Z,36.00
2022-11-30T12:51:56.827Z,32.60
2022-11-30T12:54:39.853Z,31.70
2022-11-30T12:57:21.629Z,34.50
2022-11-30T12:59:58.951Z,34.30
2022-11-30T13:02:48.043Z,36.60
2022-11-30T13:05:22.797Z,37.20
2022-11-30T13:08:23.533Z,35.90
2022-11-30T13:11:01.764Z,31.20
2022-11-30T13:13:33.802Z,31.40
2022-11-30T13:16:05.775Z,34.30
2022-11-30T13:18:34.892Z,35.80
2022-11-30T13:21:10.025Z,36.70
2022-11-30T13:23:44.770Z,36.60
2022-11-30T13:26:36.918Z,29.20
2022-11-30T13:29:41.491Z,26.70
2022-11-30T13:32:33.928Z,32.20
2022-11-30T13:35:28.975Z,33.90
2022-11-30T13:38:20.701Z,29.70
2022-11-30T13:40:58.476Z,30.40
2022-11-30T13:43:35.682Z,59.50
2022-11-30T13:46:15.139Z,32.40
2022-11-30T13:48:44.392Z,51.40
2022-11-30T13:51:13.272Z,36.90
2022-11-30T13:53:41.467Z,34.90
2022-11-30T13:56:21.381Z,37.80
2022-11-30T13:59:20.257Z,33.20
2022-11-30T14:01:48.499Z,34.00
2022-11-30T14:04:19.353Z,37.70
2022-11-30T14:06:55.521Z,34.90
2022-11-30T14:09:38.378Z,35.50
2022-11-30T14:12:37.213Z,37.00
2022-11-30T14:15:31.777Z,36.60
2022-11-30T14:18:04.897Z,39.40
2022-11-30T14:20:38.184Z,44.80
2022-11-30T14:23:08.248Z,40.00
2022-11-30T14:25:36.765Z,36.20
2022-11-30T14:28:05.814Z,35.80
2022-11-30T14:30:34.420Z,49.70
2022-11-30T14:33:16.558Z,37.00
2022-11-30T14:38:27.161Z,38.10
2022-11-30T14:40:55.235Z,37.20
2022-11-30T14:43:24.169Z,32.50
2022-11-30T14:46:06.495Z,34.20
2022-11-30T14:51:04.904Z,43.60
2022-11-30T14:54:05.052Z,44.40
2022-11-30T14:56:46.261Z,42.70
2022-11-30T14:59:51.643Z,37.80
2022-11-30T15:02:35.128Z,39.10
2022-11-30T15:05:09.274Z,40.50
2022-11-30T15:07:37.497Z,40.10
2022-11-30T15:10:30.364Z,46.80
2022-11-30T15:13:01.319Z,41.00
2022-11-30T15:15:31.410Z,40.90
2022-11-30T15:18:20.716Z,39.80
2022-11-30T15:20:51.170Z,41.00
2022-11-30T15:23:19.121Z,48.20
2022-11-30T15:26:08.435Z,43.10
2022-11-30T15:28:43.610Z,45.70
2022-11-30T15:31:16.124Z,42.50
2022-11-30T15:33:51.435Z,52.70
2022-11-30T15:36:32.541Z,43.70
2022-11-30T15:39:06.401Z,44.90
2022-11-30T15:41:36.217Z,47.00
2022-11-30T15:44:04.302Z,48.30
2022-11-30T15:46:42.788Z,49.40
2022-11-30T15:49:17.748Z,46.90
2022-11-30T15:51:47.673Z,47.00
2022-11-30T15:54:15.767Z,45.10
2022-11-30T15:56:56.220Z,50.30
2022-11-30T15:59:26.373Z,77.90
2022-11-30T16:02:27.658Z,54.40
2022-11-30T16:05:14.573Z,48.00
2022-11-30T16:07:50.297Z,50.60
2022-11-30T16:10:24.349Z,47.40
2022-11-30T16:12:54.396Z,48.10
2022-11-30T16:15:30.514Z,49.90
2022-11-30T16:18:07.789Z,47.30
2022-11-30T16:20:35.789Z,46.60
2022-11-30T16:23:06.009Z,46.60
2022-11-30T16:25:37.879Z,49.50
2022-11-30T16:28:05.966Z,53.10
2022-11-30T16:30:33.972Z,51.80
2022-11-30T16:33:05.081Z,50.90
2022-11-30T16:35:40.910Z,51.50
2022-11-30T16:38:10.636Z,52.80
2022-11-30T16:40:39.332Z,54.60
2022-11-30T16:43:10.879Z,52.70
2022-11-30T16:45:40.531Z,55.80
2022-11-30T16:48:08.471Z,55.80
2022-11-30T16:50:36.720Z,48.80
2022-11-30T16:53:05.349Z,46.00
2022-11-30T16:55:35.114Z,41.80
2022-11-30T16:58:03.504Z,46.00
2022-11-30T17:00:32.259Z,46.80
2022-11-30T17:03:08.280Z,47.20
2022-11-30T17:05:36.861Z,45.40
2022-11-30T17:08:05.033Z,44.60
2022-11-30T17:10:32.995Z,45.60
2022-11-30T17:13:00.954Z,44.40
2022-11-30T17:15:29.046Z,50.60
2022-11-30T17:17:59.419Z,51.00
2022-11-30T17:20:27.936Z,52.50
2022-11-30T17:22:55.864Z,46.30
2022-11-30T17:25:24.202Z,46.50
2022-11-30T17:27:52.124Z,48.40
2022-11-30T17:30:22.079Z,49.80
2022-11-30T17:32:50.935Z,50.10
2022-11-30T17:35:19.756Z,42.90
2022-11-30T17:37:47.736Z,39.70
2022-11-30T17:40:16.296Z,40.80
2022-11-30T17:42:44.519Z,38.60
2022-11-30T17:45:12.617Z,40.20
2022-11-30T17:47:40.668Z,40.20
2022-11-30T17:50:09.138Z,44.30
2022-11-30T17:52:37.099Z,39.20
2022-11-30T17:55:05.340Z,37.20
2022-11-30T17:57:33.300Z,37.40
2022-11-30T18:00:01.358Z,38.80
2022-11-30T18:02:29.556Z,37.90
2022-11-30T18:04:57.541Z,42.30
2022-11-30T18:07:25.550Z,44.90
2022-11-30T18:09:53.555Z,42.90
2022-11-30T18:12:21.482Z,41.60
2022-11-30T18:14:50.334Z,43.10
2022-11-30T18:17:18.473Z,52.40
2022-11-30T18:19:47.695Z,48.60
2022-11-30T18:22:15.840Z,48.00
2022-11-30T18:24:43.809Z,43.90
2022-11-30T18:27:12.379Z,43.40
2022-11-30T18:29:40.316Z,43.90
2022-11-30T18:32:09.668Z,46.90
2022-11-30T18:34:37.812Z,46.60
2022-11-30T18:37:05.992Z,46.10
2022-11-30T18:39:33.913Z,40.20
2022-11-30T18:42:01.868Z,38.00
2022-11-30T18:44:29.853Z,39.40
2022-11-30T18:46:57.897Z,39.90
2022-11-30T18:49:25.901Z,40.60
2022-11-30T18:51:53.867Z,41.20
2022-11-30T18:54:22.403Z,41.30
2022-11-30T18:56:50.362Z,38.20
2022-11-30T18:59:18.320Z,40.50
2022-11-30T19:01:46.629Z,37.50
2022-11-30T19:04:14.636Z,40.60
2022-11-30T19:06:43.274Z,39.50
2022-11-30T19:09:14.503Z,40.10
2022-11-30T19:11:43.168Z,41.10
2022-11-30T19:14:16.027Z,39.10
2022-11-30T19:16:45.022Z,35.50
2022-11-30T19:19:14.625Z,39.00
2022-11-30T19:21:45.375Z,38.40
2022-11-30T19:24:14.559Z,38.80
2022-11-30T19:26:42.546Z,36.40
2022-11-30T19:29:12.077Z,35.90
2022-11-30T19:31:40.146Z,38.00
2022-11-30T19:34:12.625Z,38.20
2022-11-30T19:36:41.764Z,42.00
2022-11-30T19:39:10.423Z,45.20
2022-11-30T19:41:38.615Z,42.80
2022-11-30T19:44:06.536Z,36.40
2022-11-30T19:46:34.840Z,37.40
2022-11-30T19:49:03.587Z,40.10
2022-11-30T19:51:31.977Z,40.50
2022-11-30T19:54:01.987Z,43.10
2022-11-30T19:56:32.252Z,42.70
2022-11-30T19:59:05.099Z,41.20
2022-11-30T20:01:34.721Z,40.40
2022-11-30T20:04:04.514Z,42.90
2022-11-30T20:06:37.523Z,46.60
2022-11-30T20:09:07.105Z,46.20
2022-11-30T20:11:35.560Z,42.10
2022-11-30T20:14:03.985Z,41.40
2022-11-30T20:16:32.208Z,41.10
2022-11-30T20:19:02.459Z,42.60
2022-11-30T20:21:33.422Z,44.10
2022-11-30T20:24:04.953Z,47.40
2022-11-30T20:26:39.738Z,49.70
2022-11-30T20:29:13.084Z,52.30
2022-11-30T20:31:42.520Z,51.00
2022-11-30T20:34:11.045Z,48.70
2022-11-30T20:36:39.148Z,45.10
2022-11-30T20:39:07.683Z,51.20
2022-11-30T20:41:35.675Z,54.20
2022-11-30T20:44:04.045Z,54.00
2022-11-30T20:46:34.613Z,51.70
2022-11-30T20:49:09.203Z,51.60
2022-11-30T20:54:09.377Z,51.60
2022-11-30T20:56:38.331Z,49.10
2022-11-30T20:59:09.048Z,53.30
2022-11-30T21:01:37.057Z,55.40
2022-11-30T21:04:05.112Z,49.30
2022-11-30T21:06:33.123Z,46.60
2022-11-30T21:09:01.163Z,47.20
2022-11-30T21:11:30.229Z,48.40
2022-11-30T21:13:58.798Z,52.80
2022-11-30T21:16:29.726Z,57.20
2022-11-30T21:18:59.667Z,56.90
2022-11-30T21:21:30.988Z,54.20
2022-11-30T21:24:00.834Z,48.30
2022-11-30T21:26:34.904Z,51.80
2022-11-30T21:29:05.874Z,50.30
2022-11-30T21:31:35.175Z,51.20
2022-11-30T21:34:03.549Z,49.00
2022-11-30T21:36:31.641Z,47.50
2022-11-30T21:39:06.100Z,44.80
2022-11-30T21:41:37.335Z,44.50
2022-11-30T21:44:07.990Z,46.10
2022-11-30T21:46:36.025Z,47.40
2022-11-30T21:49:04.234Z,50.10
2022-11-30T21:51:32.526Z,50.50
2022-11-30T21:54:03.504Z,49.10
2022-11-30T21:56:34.556Z,48.10
2022-11-30T21:59:05.056Z,47.30
2022-11-30T22:01:36.277Z,48.40
2022-11-30T22:04:06.047Z,48.40
2022-11-30T22:06:36.973Z,51.70
2022-11-30T22:09:08.590Z,54.40
2022-11-30T22:11:39.197Z,51.90
2022-11-30T22:14:10.979Z,52.70
2022-11-30T22:16:39.102Z,51.20
2022-11-30T22:19:07.345Z,51.20
2022-11-30T22:21:35.599Z,47.90
2022-11-30T22:24:06.424Z,44.80
2022-11-30T22:26:36.906Z,46.60
2022-11-30T22:29:14.158Z,44.80
2022-11-30T22:31:44.689Z,35.70
2022-11-30T22:34:13.451Z,40.90
2022-11-30T22:36:43.409Z,38.70
2022-11-30T22:39:20.098Z,43.80
2022-11-30T22:41:54.693Z,49.50
2022-11-30T22:44:24.133Z,48.90
2022-11-30T22:46:52.117Z,42.40
2022-11-30T22:49:21.590Z,44.30
2022-11-30T22:51:50.916Z,48.70
2022-11-30T22:54:19.059Z,48.20
2022-11-30T22:56:47.183Z,51.20
2022-11-30T22:59:16.163Z,46.40
2022-11-30T23:01:47.254Z,44.50
2022-11-30T23:04:17.675Z,47.10
2022-11-30T23:06:47.362Z,44.10
2022-11-30T23:09:21.071Z,48.10
2022-11-30T23:11:50.193Z,50.30
2022-11-30T23:14:18.740Z,50.60
2022-11-30T23:16:46.718Z,47.80
2022-11-30T23:19:14.866Z,46.60
2022-11-30T23:21:45.443Z,47.20
2022-11-30T23:24:17.531Z,47.00
2022-11-30T23:26:46.153Z,49.10
2022-11-30T23:29:15.872Z,52.10
2022-11-30T23:31:45.041Z,50.50
2022-11-30T23:34:16.275Z,43.90
2022-11-30T23:36:44.482Z,47.10
2022-11-30T23:39:15.173Z,48.00
2022-11-30T23:41:43.395Z,50.20
2022-11-30T23:44:11.801Z,53.00
2022-11-30T23:46:39.961Z,51.10
2022-11-30T23:49:08.376Z,49.70
2022-11-30T23:51:36.258Z,47.70
2022-11-30T23:54:04.559Z,46.80
2022-11-30T23:56:32.578Z,45.80
2022-11-30T23:59:00.427Z,48.40
